createdAt,value
2019-03-15T00:14:16.317Z,74.7
2019-03-15T00:29:29.399Z,74.7
2019-03-15T00:44:42.445Z,77.3
2019-03-15T00:59:55.979Z,73.6
2019-03-15T01:15:07.782Z,73.6
2019-03-15T01:30:21.263Z,70.3
2019-03-15T01:45:34.231Z,70
2019-03-15T02:00:47.157Z,69.4
2019-03-15T02:15:52.901Z,70.8
2019-03-15T02:31:13.062Z,70.6
2019-03-15T02:46:26.232Z,65.9
2019-03-15T03:01:39.054Z,67.6
2019-03-15T03:16:52.081Z,67.4
2019-03-15T03:32:04.652Z,64.7
2019-03-15T03:47:18.679Z,61
2019-03-15T04:02:33.792Z,59.6
2019-03-15T04:17:43.912Z,58.5
2019-03-15T04:32:50.000Z,57.6
2019-03-15T04:48:10.031Z,57.5
2019-03-15T05:03:23.060Z,58
2019-03-15T05:18:36.036Z,57.6
2019-03-15T05:33:49.126Z,57
2019-03-15T05:49:02.096Z,55.6
2019-03-15T06:04:15.311Z,55.4
2019-03-15T06:19:28.374Z,55.4
2019-03-15T06:34:41.554Z,55.6
2019-03-15T06:49:47.790Z,55.1
2019-03-15T07:05:07.993Z,50.2
2019-03-15T07:20:21.232Z,48.9
2019-03-15T07:35:34.690Z,51.1
2019-03-15T07:50:36.953Z,51.8
2019-03-15T08:06:01.791Z,50.8
2019-03-15T08:21:16.019Z,50.1
2019-03-15T08:36:29.309Z,48.4
2019-03-15T08:51:43.224Z,46.9
2019-03-15T09:06:53.763Z,45.2
2019-03-15T09:22:11.149Z,43.6
2019-03-15T09:37:25.249Z,43.2
2019-03-15T09:52:39.612Z,40.8
2019-03-15T10:07:44.453Z,40.3
2019-03-15T10:23:07.990Z,38.1
2019-03-15T10:38:22.374Z,37.7
2019-03-15T10:53:36.906Z,35
2019-03-15T11:08:51.381Z,37
2019-03-15T11:24:02.870Z,36.9
2019-03-15T11:39:20.323Z,37.1
2019-03-15T11:54:34.995Z,38.5
2019-03-15T12:09:49.285Z,43.6
2019-03-15T12:24:54.196Z,42.4
2019-03-15T12:40:18.026Z,44.4
2019-03-15T12:55:32.189Z,47.6
2019-03-15T13:10:46.380Z,51.5
2019-03-15T13:26:00.692Z,52.9
2019-03-15T13:41:12.766Z,52.6
2019-03-15T13:56:28.588Z,55.9
2019-03-15T14:11:42.561Z,58.7
2019-03-15T14:26:56.523Z,63.1
2019-03-15T14:42:02.521Z,64.3
2019-03-15T14:57:24.308Z,67.4
2019-03-15T15:12:38.175Z,74
2019-03-15T15:28:05.022Z,76.2
2019-03-15T15:43:53.149Z,76.6
2019-03-15T15:59:17.122Z,75.6
2019-03-15T16:14:31.643Z,72.9
2019-03-15T16:29:45.529Z,73
2019-03-15T16:44:59.817Z,72.8
2019-03-15T17:00:10.705Z,70
2019-03-15T17:15:28.847Z,68.9
2019-03-15T17:30:43.278Z,68.2
2019-03-15T17:45:57.813Z,69.6
2019-03-15T18:01:01.252Z,69.5
2019-03-15T18:16:27.319Z,66.7
2019-03-15T18:31:42.137Z,75.4
2019-03-15T18:46:56.211Z,79.5
2019-03-15T19:02:09.846Z,88.2
2019-03-15T19:17:18.962Z,91.8
2019-03-15T19:32:36.773Z,91.5
2019-03-15T19:47:50.387Z,89.5
2019-03-15T20:03:04.754Z,83.3
2019-03-15T20:18:07.307Z,77.8
2019-03-15T20:33:32.166Z,62.8
2019-03-15T20:48:46.239Z,63.8
2019-03-15T21:04:00.001Z,63.8
2019-03-15T21:19:13.907Z,55.6
2019-03-15T21:34:23.454Z,51.7
2019-03-15T21:49:41.752Z,49.4
2019-03-15T22:04:55.608Z,40
2019-03-15T22:20:09.728Z,38.1
2019-03-15T22:35:11.544Z,36.4
2019-03-15T22:50:37.035Z,38.7
2019-03-15T23:05:50.676Z,37.9
2019-03-15T23:21:04.359Z,39.8
2019-03-15T23:36:18.748Z,39.8
2019-03-15T23:51:26.026Z,36.1
